Time;durP1;ratioP1;P1;durP2;ratioP2;P2;SDS_P1;SDS_P2;PMS_P1;PMS_P2;Temp;Humidity;BMP_temperature;BMP_pressure;BME280_temperature;BME280_humidity;BME280_pressure;Samples;Min_cycle;Max_cycle;Signal;HPM_P1;HPM_P2
2022/05/15 00:00:41;;;;;;;1.67;1.57;;;25.80;56.70;;;;;;5074060;28;20428;-82
2022/05/15 00:03:13;;;;;;;1.80;1.60;;;25.80;56.70;;;;;;5074202;28;20459;-82
2022/05/15 00:05:40;;;;;;;1.37;1.27;;;25.80;56.70;;;;;;5074218;28;20437;-81
2022/05/15 00:08:09;;;;;;;1.77;1.67;;;25.80;56.70;;;;;;5074138;28;20441;-88
2022/05/15 00:10:38;;;;;;;2.00;1.80;;;25.80;56.70;;;;;;5074123;28;20544;-82
2022/05/15 00:13:06;;;;;;;1.50;1.40;;;25.80;56.60;;;;;;5056242;28;20831;-82
2022/05/15 00:15:34;;;;;;;1.97;1.57;;;25.80;56.70;;;;;;5073883;28;20476;-82
2022/05/15 00:18:01;;;;;;;2.30;1.73;;;25.80;56.60;;;;;;5074040;28;20457;-84
2022/05/15 00:20:28;;;;;;;1.60;1.50;;;25.80;56.70;;;;;;5074155;28;20438;-81
2022/05/15 00:22:55;;;;;;;1.97;1.87;;;25.80;56.70;;;;;;5073946;28;20471;-82
2022/05/15 00:25:22;;;;;;;1.50;1.40;;;25.80;56.60;;;;;;5073813;28;20441;-81
2022/05/15 00:27:50;;;;;;;1.50;1.40;;;25.80;56.60;;;;;;5073819;28;20445;-81
2022/05/15 00:30:17;;;;;;;1.50;1.40;;;25.80;56.70;;;;;;5073821;28;20841;-82
2022/05/15 00:32:44;;;;;;;3.50;1.70;;;25.80;56.60;;;;;;5073838;28;20845;-82
2022/05/15 00:35:12;;;;;;;1.60;1.50;;;25.80;56.60;;;;;;5073564;28;20440;-81
2022/05/15 00:37:39;;;;;;;1.43;1.33;;;25.80;56.60;;;;;;5073759;28;20924;-82
2022/05/15 00:40:08;;;;;;;1.50;1.40;;;25.80;56.60;;;;;;5073666;28;20425;-82
2022/05/15 00:42:35;;;;;;;1.67;1.57;;;25.80;56.60;;;;;;5073521;28;20841;-82
2022/05/15 00:45:04;;;;;;;1.67;1.57;;;25.80;56.60;;;;;;5073574;28;20860;-82
2022/05/15 00:47:30;;;;;;;1.73;1.57;;;25.80;56.60;;;;;;5073682;28;20468;-85
2022/05/15 00:49:58;;;;;;;1.50;1.40;;;25.80;56.60;;;;;;5073437;28;20928;-82
2022/05/15 00:52:28;;;;;;;1.70;1.60;;;25.80;56.60;;;;;;5073345;28;20441;-82
2022/05/15 00:55:00;;;;;;;1.63;1.33;;;25.80;56.60;;;;;;5073301;28;20444;-82
2022/05/15 00:57:32;;;;;;;1.73;1.63;;;25.80;56.60;;;;;;5073399;28;20480;-82
2022/05/15 01:00:03;;;;;;;2.03;1.93;;;25.80;56.60;;;;;;5073435;28;20441;-82
2022/05/15 01:02:36;;;;;;;1.87;1.50;;;25.70;56.50;;;;;;5073304;28;20983;-82
2022/05/15 01:05:04;;;;;;;1.60;1.50;;;25.80;56.60;;;;;;5073339;28;20441;-81
2022/05/15 01:07:31;;;;;;;2.17;1.97;;;25.80;56.60;;;;;;5073244;28;20449;-82
2022/05/15 01:09:59;;;;;;;1.70;1.60;;;25.80;56.60;;;;;;5073112;28;20467;-88
2022/05/15 01:12:27;;;;;;;1.97;1.77;;;25.80;56.50;;;;;;5055457;28;20506;-82
2022/05/15 01:14:54;;;;;;;1.40;1.30;;;25.80;56.60;;;;;;5072917;28;20464;-82
2022/05/15 01:17:21;;;;;;;1.47;1.37;;;25.80;56.50;;;;;;5073204;28;20463;-82
2022/05/15 01:19:49;;;;;;;1.67;1.57;;;25.70;57.00;;;;;;5073187;28;20433;-81
2022/05/15 01:22:17;;;;;;;1.70;1.53;;;25.70;56.50;;;;;;5073079;28;20520;-82
2022/05/15 01:24:44;;;;;;;1.60;1.50;;;25.80;56.50;;;;;;5073294;28;20440;-81
2022/05/15 01:27:13;;;;;;;1.60;1.50;;;25.70;56.50;;;;;;5073245;28;20444;-82
2022/05/15 01:29:43;;;;;;;1.73;1.53;;;25.80;56.50;;;;;;5073140;28;20494;-82
2022/05/15 01:32:11;;;;;;;1.97;1.80;;;25.80;56.50;;;;;;5073125;28;20464;-82
2022/05/15 01:34:38;;;;;;;1.90;1.80;;;25.70;56.40;;;;;;5073104;28;20819;-81
2022/05/15 01:37:05;;;;;;;1.33;1.23;;;25.70;56.50;;;;;;5073016;28;20452;-88
2022/05/15 01:39:33;;;;;;;2.13;1.93;;;25.70;56.40;;;;;;5073118;28;20441;-82
2022/05/15 01:42:01;;;;;;;1.33;1.23;;;25.70;56.40;;;;;;5072835;28;21017;-82
2022/05/15 01:44:28;;;;;;;1.60;1.40;;;25.70;56.40;;;;;;5072881;28;20452;-88
2022/05/15 01:46:55;;;;;;;2.33;1.90;;;25.70;56.40;;;;;;5072962;28;20464;-82
2022/05/15 01:49:22;;;;;;;1.50;1.37;;;25.70;56.40;;;;;;5072860;28;20443;-82
2022/05/15 01:51:49;;;;;;;1.60;1.50;;;25.70;56.40;;;;;;5072805;28;20452;-89
2022/05/15 01:54:16;;;;;;;1.63;1.53;;;25.70;56.40;;;;;;5072874;28;20444;-81
2022/05/15 01:56:44;;;;;;;1.60;1.50;;;25.70;56.40;;;;;;5072843;28;20449;-81
2022/05/15 01:59:11;;;;;;;2.70;1.90;;;25.70;56.40;;;;;;5072809;28;20962;-82
2022/05/15 02:01:38;;;;;;;1.50;1.40;;;25.70;56.30;;;;;;5072630;28;20503;-82
2022/05/15 02:04:07;;;;;;;2.63;1.80;;;25.70;56.40;;;;;;5072730;28;20958;-81
2022/05/15 02:06:34;;;;;;;1.73;1.63;;;25.80;56.40;;;;;;5072750;28;20796;-82
2022/05/15 02:09:00;;;;;;;1.90;1.50;;;25.70;56.40;;;;;;5072668;28;20796;-88
2022/05/15 02:11:27;;;;;;;1.50;1.40;;;25.70;56.30;;;;;;5072608;28;20452;-82
2022/05/15 02:13:55;;;;;;;1.63;1.53;;;25.70;56.40;;;;;;5072422;28;20448;-81
2022/05/15 02:16:22;;;;;;;1.63;1.53;;;25.70;56.30;;;;;;5072573;28;20461;-82
2022/05/15 02:18:49;;;;;;;2.00;1.57;;;25.70;56.30;;;;;;5072588;28;20440;-82
2022/05/15 02:21:15;;;;;;;1.90;1.80;;;25.70;56.30;;;;;;5072470;28;20437;-81
2022/05/15 02:23:42;;;;;;;1.77;1.67;;;25.70;56.30;;;;;;5072533;28;20923;-81
2022/05/15 02:26:09;;;;;;;1.57;1.40;;;25.70;56.30;;;;;;5076152;28;20448;-82
2022/05/15 02:28:36;;;;;;;1.57;1.47;;;25.70;56.30;;;;;;5076268;28;20802;-81
2022/05/15 02:31:05;;;;;;;2.03;1.77;;;25.70;56.40;;;;;;5076063;28;20444;-88
2022/05/15 02:33:31;;;;;;;3.10;1.57;;;25.70;56.30;;;;;;5076013;28;20935;-81
2022/05/15 02:35:58;;;;;;;1.70;1.60;;;25.70;56.30;;;;;;5075990;28;20444;-87
2022/05/15 02:38:25;;;;;;;1.90;1.50;;;25.70;56.30;;;;;;5075973;28;20441;-81
2022/05/15 02:40:52;;;;;;;1.50;1.40;;;25.70;56.30;;;;;;5076186;28;20437;-87
2022/05/15 02:43:19;;;;;;;1.50;1.40;;;25.80;56.40;;;;;;5075804;28;20832;-82
2022/05/15 02:45:46;;;;;;;1.60;1.50;;;25.70;56.40;;;;;;5075819;28;20471;-87
2022/05/15 02:51:07;;;;;;;1.80;1.70;;;25.70;56.30;;;;;;5075025;28;20436;-82
2022/05/15 02:53:36;;;;;;;1.63;1.50;;;25.60;56.30;;;;;;5075775;28;20444;-81
2022/05/15 02:56:06;;;;;;;1.63;1.53;;;25.60;56.30;;;;;;5075862;28;20441;-82
2022/05/15 02:58:33;;;;;;;1.77;1.67;;;25.60;56.30;;;;;;5075583;28;20433;-82
2022/05/15 03:00:59;;;;;;;2.00;1.70;;;25.60;56.30;;;;;;5075517;28;20457;-82
2022/05/15 03:03:28;;;;;;;1.80;1.70;;;25.60;56.30;;;;;;5075476;28;20487;-82
2022/05/15 03:05:55;;;;;;;1.63;1.50;;;25.60;56.30;;;;;;5075494;28;20451;-82
2022/05/15 03:08:23;;;;;;;1.83;1.73;;;25.60;56.30;;;;;;5075251;28;20773;-82
2022/05/15 03:10:50;;;;;;;2.00;1.70;;;25.60;56.30;;;;;;5075484;28;20440;-82
2022/05/15 03:13:16;;;;;;;1.87;1.70;;;25.60;56.30;;;;;;5075353;28;20436;-84
2022/05/15 03:15:43;;;;;;;1.60;1.50;;;25.60;56.30;;;;;;5075159;28;20471;-82
2022/05/15 03:18:10;;;;;;;2.23;1.70;;;25.60;56.30;;;;;;5075347;28;20492;-85
2022/05/15 03:20:38;;;;;;;1.93;1.83;;;25.60;56.30;;;;;;5075420;28;20778;-88
2022/05/15 03:23:05;;;;;;;1.60;1.47;;;25.60;56.20;;;;;;5075072;28;20994;-82
2022/05/15 03:25:33;;;;;;;1.50;1.40;;;25.60;56.20;;;;;;5075102;28;20447;-82
2022/05/15 03:28:00;;;;;;;1.90;1.70;;;25.60;56.20;;;;;;5074985;28;20507;-82
2022/05/15 03:30:29;;;;;;;1.80;1.33;;;25.60;56.30;;;;;;5075146;28;20443;-82
2022/05/15 03:32:55;;;;;;;2.17;1.50;;;25.60;56.30;;;;;;5075050;28;20437;-81
2022/05/15 03:35:22;;;;;;;1.40;1.30;;;25.60;56.20;;;;;;5074641;28;20464;-88
2022/05/15 03:37:50;;;;;;;2.03;1.60;;;25.60;56.20;;;;;;5074425;28;20800;-82
2022/05/15 03:40:17;;;;;;;1.50;1.40;;;25.60;56.30;;;;;;5074969;28;20512;-82
2022/05/15 03:42:44;;;;;;;2.20;1.73;;;25.60;56.30;;;;;;5074629;28;20495;-81
2022/05/15 03:45:11;;;;;;;1.40;1.30;;;25.50;56.20;;;;;;5074660;28;20452;-81
2022/05/15 03:47:45;;;;;;;1.70;1.40;;;25.60;56.30;;;;;;5074536;28;20468;-81
2022/05/15 03:50:11;;;;;;;1.97;1.60;;;25.60;56.20;;;;;;5074826;28;20437;-82
2022/05/15 03:52:38;;;;;;;1.50;1.40;;;25.50;56.20;;;;;;5074722;28;20441;-82
2022/05/15 03:55:08;;;;;;;1.63;1.53;;;25.60;56.30;;;;;;5074462;28;20441;-81
2022/05/15 03:57:35;;;;;;;1.40;1.30;;;25.50;56.20;;;;;;5074647;28;20437;-82
2022/05/15 04:00:02;;;;;;;2.23;1.80;;;25.50;56.20;;;;;;5074519;28;20437;-82
2022/05/15 04:02:30;;;;;;;1.70;1.60;;;25.50;56.20;;;;;;5074213;28;20477;-82
2022/05/15 04:04:57;;;;;;;1.70;1.60;;;25.60;56.30;;;;;;5074247;28;20448;-81
2022/05/15 04:07:24;;;;;;;1.60;1.50;;;25.50;56.20;;;;;;5074229;28;20441;-81
2022/05/15 04:09:51;;;;;;;1.50;1.23;;;25.60;56.30;;;;;;5074200;28;20437;-88
2022/05/15 04:12:19;;;;;;;2.60;1.73;;;25.60;56.20;;;;;;5074158;28;20445;-83
2022/05/15 04:14:46;;;;;;;1.77;1.60;;;25.60;56.30;;;;;;5074023;28;20469;-88
2022/05/15 04:17:13;;;;;;;1.90;1.30;;;25.50;56.20;;;;;;5074077;28;20456;-88
2022/05/15 04:19:40;;;;;;;1.60;1.50;;;25.60;56.20;;;;;;5074236;28;20439;-88
2022/05/15 04:22:07;;;;;;;1.80;1.70;;;25.50;56.20;;;;;;5073991;28;20513;-88
2022/05/15 04:24:35;;;;;;;1.70;1.60;;;25.60;56.20;;;;;;5073921;28;20562;-83
2022/05/15 04:27:02;;;;;;;1.73;1.60;;;25.50;56.20;;;;;;5074061;28;20960;-82
2022/05/15 04:29:30;;;;;;;1.50;1.40;;;25.60;56.20;;;;;;5073776;28;20924;-82
2022/05/15 04:31:57;;;;;;;1.70;1.57;;;25.70;56.30;;;;;;5073811;28;20939;-82
2022/05/15 04:34:24;;;;;;;1.33;1.23;;;25.50;56.20;;;;;;5073679;28;20766;-88
2022/05/15 04:36:51;;;;;;;1.40;1.30;;;25.50;56.20;;;;;;5073833;28;20441;-81
2022/05/15 04:39:18;;;;;;;2.00;1.60;;;25.50;56.20;;;;;;5073698;28;20433;-88
2022/05/15 04:41:45;;;;;;;1.90;1.80;;;25.50;56.10;;;;;;5073839;28;20441;-81
2022/05/15 04:44:12;;;;;;;1.70;1.53;;;25.50;56.20;;;;;;5073444;28;20917;-81
2022/05/15 04:46:40;;;;;;;1.80;1.70;;;25.50;56.20;;;;;;5073387;28;20492;-82
2022/05/15 04:49:07;;;;;;;1.50;1.40;;;25.50;56.10;;;;;;5073491;28;20444;-88
2022/05/15 04:51:34;;;;;;;1.53;1.43;;;25.50;56.10;;;;;;5073722;28;20770;-82
2022/05/15 04:54:01;;;;;;;1.80;1.47;;;25.50;56.70;;;;;;5073531;28;20441;-82
2022/05/15 04:56:28;;;;;;;1.67;1.50;;;25.50;56.10;;;;;;5073863;28;20792;-82
2022/05/15 04:58:55;;;;;;;1.40;1.30;;;25.50;56.10;;;;;;5073545;28;20428;-81
2022/05/15 05:01:24;;;;;;;1.70;1.47;;;25.50;56.20;;;;;;5073755;28;20437;-88
2022/05/15 05:03:53;;;;;;;1.50;1.40;;;25.50;56.10;;;;;;5073279;28;20485;-82
2022/05/15 05:06:20;;;;;;;1.93;1.73;;;25.50;56.10;;;;;;5073293;28;20447;-81
2022/05/15 05:08:47;;;;;;;1.77;1.67;;;25.50;56.10;;;;;;5073276;28;20437;-81
2022/05/15 05:11:13;;;;;;;1.87;1.77;;;25.50;56.10;;;;;;5073293;28;20769;-82
2022/05/15 05:13:40;;;;;;;2.17;1.47;;;25.50;56.10;;;;;;5072991;28;20443;-81
2022/05/15 05:16:07;;;;;;;1.60;1.50;;;25.50;56.10;;;;;;5073190;28;20441;-81
2022/05/15 05:18:34;;;;;;;2.57;1.80;;;25.50;56.10;;;;;;5073189;28;20453;-88
2022/05/15 05:21:02;;;;;;;2.17;1.50;;;25.50;56.10;;;;;;5073298;28;20452;-82
2022/05/15 05:23:29;;;;;;;2.33;1.90;;;25.50;56.10;;;;;;5073184;28;20484;-89
2022/05/15 05:25:55;;;;;;;1.60;1.50;;;25.50;56.10;;;;;;5073077;28;20433;-89
2022/05/15 05:28:23;;;;;;;1.77;1.67;;;25.50;56.10;;;;;;5072853;28;20437;-88
2022/05/15 05:30:50;;;;;;;2.23;1.73;;;25.50;56.10;;;;;;5073188;28;20447;-82
2022/05/15 05:33:17;;;;;;;1.60;1.47;;;25.50;56.10;;;;;;5055579;28;20516;-88
2022/05/15 05:35:44;;;;;;;1.60;1.50;;;25.50;56.10;;;;;;5073037;28;20959;-82
2022/05/15 05:38:13;;;;;;;1.50;1.40;;;25.50;56.10;;;;;;5072954;28;20437;-83
2022/05/15 05:40:40;;;;;;;1.40;1.30;;;25.50;56.10;;;;;;5073182;28;20448;-81
2022/05/15 05:43:06;;;;;;;1.70;1.60;;;25.50;56.10;;;;;;5072784;28;20480;-81
2022/05/15 05:45:33;;;;;;;1.80;1.70;;;25.50;56.10;;;;;;5072947;28;20444;-82
2022/05/15 05:48:00;;;;;;;2.10;2.00;;;25.50;56.10;;;;;;5072793;28;20475;-82
2022/05/15 05:50:28;;;;;;;1.87;1.73;;;25.50;56.10;;;;;;5073019;28;20433;-88
2022/05/15 05:52:57;;;;;;;1.87;1.70;;;25.50;56.10;;;;;;5072792;28;20452;-81
2022/05/15 05:55:27;;;;;;;1.50;1.30;;;25.50;56.10;;;;;;5072806;28;20437;-82
2022/05/15 05:57:54;;;;;;;1.77;1.50;;;25.50;56.10;;;;;;5072822;28;20440;-82
2022/05/15 06:00:24;;;;;;;1.80;1.70;;;25.50;56.70;;;;;;5075454;28;20451;-82
2022/05/15 06:02:52;;;;;;;1.87;1.63;;;25.50;56.10;;;;;;5076832;28;20933;-82
2022/05/15 06:05:19;;;;;;;1.97;1.60;;;25.50;56.10;;;;;;5076766;28;20441;-82
2022/05/15 06:07:45;;;;;;;2.87;2.10;;;25.50;56.10;;;;;;5076637;28;20946;-88
2022/05/15 06:10:14;;;;;;;1.60;1.50;;;25.50;56.10;;;;;;5076611;28;20437;-81
2022/05/15 06:12:42;;;;;;;1.50;1.40;;;25.50;56.10;;;;;;5076443;28;20519;-82
2022/05/15 06:15:11;;;;;;;1.50;1.40;;;25.50;56.20;;;;;;5076270;28;20472;-88
2022/05/15 06:17:38;;;;;;;1.97;1.80;;;25.50;56.10;;;;;;5076354;28;20498;-82
2022/05/15 06:20:09;;;;;;;1.63;1.53;;;25.50;56.20;;;;;;5076308;28;21005;-82
2022/05/15 06:22:35;;;;;;;1.57;1.47;;;25.50;56.20;;;;;;5076186;28;20451;-88
2022/05/15 06:25:02;;;;;;;1.67;1.57;;;25.50;56.20;;;;;;5076347;28;20441;-81
2022/05/15 06:27:29;;;;;;;1.57;1.47;;;25.50;56.20;;;;;;5076416;28;20950;-89
2022/05/15 06:29:58;;;;;;;1.80;1.70;;;25.50;56.20;;;;;;5076031;28;20448;-87
2022/05/15 06:32:26;;;;;;;1.60;1.50;;;25.50;56.20;;;;;;5076589;28;20453;-81
2022/05/15 06:34:53;;;;;;;1.53;1.43;;;25.50;56.20;;;;;;5058294;28;20516;-88
2022/05/15 06:37:20;;;;;;;2.00;1.90;;;25.50;56.20;;;;;;5075994;28;20437;-82
2022/05/15 06:39:47;;;;;;;1.77;1.67;;;25.50;56.20;;;;;;5076031;28;20445;-82
2022/05/15 06:42:14;;;;;;;1.80;1.70;;;25.50;56.20;;;;;;5076004;28;20444;-88
2022/05/15 06:44:41;;;;;;;1.70;1.60;;;25.50;56.20;;;;;;5075843;28;20512;-82
2022/05/15 06:47:09;;;;;;;1.90;1.80;;;25.50;56.20;;;;;;5075758;28;20487;-81
2022/05/15 06:49:36;;;;;;;1.40;1.30;;;25.50;56.20;;;;;;5075952;28;20504;-85
2022/05/15 06:52:03;;;;;;;1.60;1.50;;;25.50;56.10;;;;;;5076099;28;20936;-86
2022/05/15 06:54:30;;;;;;;1.50;1.40;;;25.50;56.20;;;;;;5075935;28;20440;-85
2022/05/15 06:59:41;;;;;;;1.63;1.53;;;25.60;56.20;;;;;;5076268;28;20420;-82
2022/05/15 07:02:09;;;;;;;1.67;1.57;;;25.60;56.20;;;;;;5075669;28;20866;-83
2022/05/15 07:04:36;;;;;;;1.70;1.57;;;25.60;56.20;;;;;;5075452;28;20484;-82
2022/05/15 07:07:04;;;;;;;1.63;1.53;;;25.60;56.20;;;;;;5075653;28;20531;-81
2022/05/15 07:09:30;;;;;;;1.90;1.80;;;25.50;56.20;;;;;;5075480;28;20483;-82
2022/05/15 07:11:58;;;;;;;1.80;1.70;;;25.60;56.20;;;;;;5075613;28;20449;-88
2022/05/15 07:14:25;;;;;;;1.60;1.50;;;25.70;56.20;;;;;;5075038;28;20480;-82
2022/05/15 07:16:53;;;;;;;1.50;1.40;;;25.60;56.20;;;;;;5075216;28;20548;-82
2022/05/15 07:19:22;;;;;;;1.47;1.37;;;25.60;56.20;;;;;;5075391;28;20444;-82
2022/05/15 07:21:48;;;;;;;1.63;1.53;;;25.60;56.20;;;;;;5075290;28;20796;-89
2022/05/15 07:24:15;;;;;;;1.90;1.40;;;25.60;56.20;;;;;;5075127;28;20484;-82
2022/05/15 07:26:44;;;;;;;1.80;1.70;;;25.60;56.20;;;;;;5075116;28;20444;-81
2022/05/15 07:29:12;;;;;;;1.97;1.77;;;25.60;56.20;;;;;;5074943;28;20928;-81
2022/05/15 07:31:39;;;;;;;1.50;1.40;;;25.60;56.20;;;;;;5074964;28;20448;-82
2022/05/15 07:34:07;;;;;;;1.40;1.30;;;25.60;56.20;;;;;;5057585;28;20942;-82
2022/05/15 07:36:35;;;;;;;1.63;1.53;;;25.70;56.20;;;;;;5075063;28;20510;-83
2022/05/15 07:39:02;;;;;;;2.00;1.40;;;25.70;56.20;;;;;;5075132;28;20443;-82
2022/05/15 07:41:29;;;;;;;1.40;1.30;;;25.70;56.20;;;;;;5057228;28;20444;-82
2022/05/15 07:43:56;;;;;;;2.43;1.80;;;25.70;56.20;;;;;;5074766;28;20492;-82
2022/05/15 07:46:23;;;;;;;1.60;1.50;;;25.80;56.20;;;;;;5074666;28;20476;-82
2022/05/15 07:48:50;;;;;;;1.70;1.60;;;25.80;56.20;;;;;;5074663;28;20779;-89
2022/05/15 07:51:16;;;;;;;1.40;1.30;;;25.80;56.20;;;;;;5074615;28;20444;-82
2022/05/15 07:53:44;;;;;;;2.07;1.53;;;25.80;56.30;;;;;;5074593;28;20441;-89
2022/05/15 07:56:13;;;;;;;1.80;1.70;;;25.80;56.30;;;;;;5074568;28;20923;-81
2022/05/15 07:58:40;;;;;;;2.00;1.47;;;25.80;56.30;;;;;;5074566;28;20543;-89
2022/05/15 08:01:08;;;;;;;2.07;1.60;;;25.80;56.30;;;;;;5075292;28;20518;-82
2022/05/15 08:03:38;;;;;;;1.80;1.70;;;25.80;56.30;;;;;;5074513;28;20480;-82
2022/05/15 08:08:51;;;;;;;1.77;1.33;;;25.80;56.30;;;;;;5074447;28;20548;-88
2022/05/15 08:11:18;;;;;;;1.60;1.50;;;25.80;56.30;;;;;;5074391;28;20444;-82
2022/05/15 08:13:45;;;;;;;1.40;1.30;;;25.90;56.40;;;;;;5056097;28;20441;-82
2022/05/15 08:16:12;;;;;;;1.63;1.53;;;25.90;56.40;;;;;;5074184;28;20555;-81
2022/05/15 08:24:08;;;;;;;1.30;1.20;;;25.90;56.40;;;;;;5074027;28;20619;-82
2022/05/15 08:26:37;;;;;;;1.50;1.40;;;25.90;56.50;;;;;;5073877;28;20842;-81
2022/05/15 08:29:03;;;;;;;1.40;1.30;;;25.90;56.40;;;;;;5073809;28;20500;-89
2022/05/15 08:31:30;;;;;;;1.63;1.53;;;25.90;56.40;;;;;;5073838;28;20441;-82
2022/05/15 08:33:57;;;;;;;1.80;1.20;;;26.00;56.50;;;;;;5055792;28;20449;-81
2022/05/15 08:36:24;;;;;;;1.33;1.23;;;26.00;56.50;;;;;;5073891;28;20444;-82
2022/05/15 08:38:51;;;;;;;1.50;1.40;;;26.00;56.50;;;;;;5073793;28;20464;-82
2022/05/15 08:41:29;;;;;;;1.30;1.20;;;26.00;56.40;;;;;;5073880;28;20446;-82
2022/05/15 08:44:05;;;;;;;1.90;1.57;;;26.00;56.40;;;;;;5073554;28;20477;-82
2022/05/15 08:46:39;;;;;;;1.60;1.50;;;26.00;56.50;;;;;;5073903;28;20977;-82
2022/05/15 08:49:11;;;;;;;1.40;1.30;;;26.00;56.50;;;;;;5073529;28;20521;-82
2022/05/15 08:51:43;;;;;;;1.47;1.37;;;26.10;56.50;;;;;;5073813;28;20448;-82
2022/05/15 08:54:13;;;;;;;1.70;1.60;;;26.10;56.50;;;;;;5073487;28;20448;-82
2022/05/15 08:56:47;;;;;;;1.43;1.33;;;26.20;56.50;;;;;;5073438;28;20437;-82
2022/05/15 08:59:22;;;;;;;1.57;1.47;;;26.10;56.40;;;;;;5055678;28;20475;-82
2022/05/15 09:01:53;;;;;;;1.63;1.37;;;26.20;56.50;;;;;;5073642;28;20436;-89
2022/05/15 09:04:21;;;;;;;1.60;1.50;;;26.20;56.50;;;;;;5073388;28;20477;-82
2022/05/15 09:06:56;;;;;;;1.57;1.43;;;26.20;56.50;;;;;;5073404;28;20467;-82
2022/05/15 09:09:32;;;;;;;1.80;1.20;;;26.20;56.50;;;;;;5073301;28;20923;-88
2022/05/15 09:12:07;;;;;;;1.40;1.30;;;26.30;56.50;;;;;;5073482;28;20467;-82
2022/05/15 09:14:57;;;;;;;1.33;1.13;;;26.30;56.50;;;;;;5072995;28;20802;-82
2022/05/15 09:17:32;;;;;;;1.60;1.50;;;26.30;56.40;;;;;;5073299;28;20544;-82
2022/05/15 09:20:02;;;;;;;1.40;1.30;;;26.30;56.40;;;;;;5073259;28;20437;-82
2022/05/15 09:22:33;;;;;;;1.30;1.10;;;26.30;56.40;;;;;;5073565;28;20433;-81
2022/05/15 09:25:05;;;;;;;1.50;1.40;;;26.40;56.50;;;;;;5073146;28;20484;-89
2022/05/15 09:27:34;;;;;;;1.53;1.43;;;26.30;56.40;;;;;;5073455;28;20441;-82
2022/05/15 09:30:07;;;;;;;1.50;1.30;;;26.40;56.50;;;;;;5073477;28;20429;-89
2022/05/15 09:32:39;;;;;;;1.97;1.60;;;26.40;56.50;;;;;;5073161;28;20642;-88
2022/05/15 09:35:11;;;;;;;2.37;1.47;;;26.40;56.40;;;;;;5075628;28;20463;-89
2022/05/15 09:40:38;;;;;;;1.60;1.50;;;26.60;56.60;;;;;;5062148;28;20431;-81
2022/05/15 09:45:58;;;;;;;1.87;1.67;;;26.50;56.50;;;;;;5066454;28;20574;-81
2022/05/15 09:48:34;;;;;;;2.47;1.60;;;26.60;56.50;;;;;;5077168;28;20440;-88
2022/05/15 09:51:04;;;;;;;1.70;1.27;;;26.60;56.40;;;;;;5077003;28;20440;-89
2022/05/15 09:53:39;;;;;;;1.87;1.40;;;26.60;56.40;;;;;;5076891;28;20441;-82
2022/05/15 09:56:08;;;;;;;1.67;1.43;;;26.70;56.30;;;;;;5076898;28;20443;-81
2022/05/15 09:58:55;;;;;;;1.60;1.40;;;26.70;56.30;;;;;;5076999;28;20440;-89
2022/05/15 10:01:27;;;;;;;1.40;1.30;;;26.80;56.20;;;;;;5076951;28;20950;-82
2022/05/15 10:03:56;;;;;;;1.67;1.33;;;26.80;56.30;;;;;;5076873;28;20472;-83
2022/05/15 10:06:25;;;;;;;1.67;1.50;;;26.80;56.30;;;;;;5077096;28;20863;-88
2022/05/15 10:09:14;;;;;;;1.57;1.47;;;26.80;56.30;;;;;;5076501;28;20785;-82
2022/05/15 10:11:45;;;;;;;1.50;1.40;;;26.80;56.30;;;;;;5076865;28;20440;-82
2022/05/15 10:14:25;;;;;;;1.23;1.10;;;26.80;56.30;;;;;;5076780;28;20830;-82
2022/05/15 10:16:53;;;;;;;1.40;1.30;;;26.90;56.30;;;;;;5059012;28;20471;-88
2022/05/15 10:19:27;;;;;;;1.60;1.50;;;26.90;56.30;;;;;;5076399;28;20443;-82
2022/05/15 10:22:04;;;;;;;1.60;1.50;;;26.90;56.40;;;;;;5076487;28;20943;-81
2022/05/15 10:24:35;;;;;;;1.87;1.20;;;26.90;56.40;;;;;;5076102;28;20476;-82
2022/05/15 10:27:07;;;;;;;1.70;1.60;;;26.90;56.40;;;;;;5076268;28;20447;-81
2022/05/15 10:29:41;;;;;;;1.43;1.33;;;26.90;56.40;;;;;;5076139;28;20801;-81
2022/05/15 10:32:14;;;;;;;1.40;1.30;;;26.90;56.30;;;;;;5076231;28;20447;-82
2022/05/15 10:34:42;;;;;;;1.40;1.30;;;27.00;56.30;;;;;;5076179;28;20437;-82
2022/05/15 10:37:20;;;;;;;2.33;1.40;;;27.00;56.30;;;;;;5076103;28;20498;-82
2022/05/15 10:40:03;;;;;;;1.40;1.30;;;27.00;56.30;;;;;;5075901;28;20433;-81
2022/05/15 10:42:38;;;;;;;1.70;1.40;;;27.00;56.30;;;;;;5075847;28;20449;-81
2022/05/15 10:45:15;;;;;;;1.20;1.07;;;27.00;57.00;;;;;;5075497;28;20479;-81
2022/05/15 10:47:50;;;;;;;1.93;1.83;;;27.10;56.30;;;;;;5075869;28;20467;-82
2022/05/15 10:50:27;;;;;;;1.27;1.17;;;27.10;56.40;;;;;;5075912;28;20945;-82
2022/05/15 10:59:01;;;;;;;1.40;1.30;;;27.10;56.30;;;;;;5075997;28;20954;-81
2022/05/15 11:01:37;;;;;;;1.83;1.13;;;27.20;56.40;;;;;;5075705;28;20458;-81
2022/05/15 11:04:12;;;;;;;2.43;1.50;;;27.20;56.40;;;;;;5075511;28;20444;-82
2022/05/15 11:06:58;;;;;;;1.87;1.40;;;27.20;56.40;;;;;;5075781;28;20440;-86
2022/05/15 11:09:34;;;;;;;1.83;1.10;;;27.20;56.30;;;;;;5074978;28;20448;-81
2022/05/15 11:12:15;;;;;;;1.10;1.00;;;27.20;56.30;;;;;;5075553;28;20919;-82
2022/05/15 11:14:55;;;;;;;1.50;1.30;;;27.20;56.30;;;;;;5075241;28;20476;-84
2022/05/15 11:17:30;;;;;;;1.30;1.20;;;27.20;56.30;;;;;;5075269;28;20814;-82
2022/05/15 11:20:02;;;;;;;1.30;1.20;;;27.20;56.40;;;;;;5075371;28;20440;-82
2022/05/15 11:22:33;;;;;;;1.40;1.20;;;27.20;56.40;;;;;;5075199;28;20798;-85
2022/05/15 11:25:05;;;;;;;1.53;1.27;;;27.20;56.30;;;;;;5075063;28;20484;-81
2022/05/15 11:27:39;;;;;;;1.27;1.17;;;27.30;56.40;;;;;;5075336;28;20437;-82
2022/05/15 11:30:12;;;;;;;1.43;1.17;;;27.30;56.40;;;;;;5074722;28;20790;-82
2022/05/15 11:32:59;;;;;;;1.63;1.40;;;27.20;56.40;;;;;;5074952;28;20951;-81
2022/05/15 11:35:30;;;;;;;1.57;1.30;;;27.30;56.40;;;;;;5075022;28;20786;-81
2022/05/15 11:38:20;;;;;;;1.20;1.10;;;27.30;56.40;;;;;;5075005;28;20479;-82
2022/05/15 11:40:50;;;;;;;1.53;1.43;;;27.30;56.40;;;;;;5074883;28;20441;-81
2022/05/15 11:44:03;;;;;;;2.10;1.30;;;27.20;56.40;;;;;;5074813;28;20441;-82
2022/05/15 11:47:00;;;;;;;1.40;1.20;;;27.30;56.40;;;;;;5074891;28;21044;-82
2022/05/15 11:49:36;;;;;;;1.67;1.27;;;27.30;56.50;;;;;;5074734;28;20440;-82
2022/05/15 11:52:18;;;;;;;1.67;1.23;;;27.20;57.10;;;;;;5074755;28;20436;-82
2022/05/15 11:54:49;;;;;;;1.43;1.33;;;27.20;56.50;;;;;;5074429;28;20844;-89
2022/05/15 11:57:40;;;;;;;1.43;1.33;;;27.20;56.50;;;;;;5073729;28;20548;-82
2022/05/15 12:00:12;;;;;;;1.70;1.50;;;27.30;56.50;;;;;;5074594;28;20508;-82
2022/05/15 12:02:51;;;;;;;1.60;1.20;;;27.20;56.50;;;;;;5074104;28;20444;-82
2022/05/15 12:05:36;;;;;;;1.50;1.33;;;27.30;56.60;;;;;;5074318;28;20484;-81
2022/05/15 12:08:25;;;;;;;1.20;1.10;;;27.20;56.50;;;;;;5074562;28;20432;-81
2022/05/15 12:10:58;;;;;;;1.50;1.30;;;27.30;56.60;;;;;;5074281;28;20868;-82
2022/05/15 12:13:38;;;;;;;1.30;1.13;;;27.30;56.60;;;;;;5074309;28;20437;-82
2022/05/15 12:16:22;;;;;;;1.50;1.37;;;27.30;56.60;;;;;;5074193;28;20465;-81
2022/05/15 12:18:56;;;;;;;1.80;1.10;;;27.30;56.60;;;;;;5074230;28;20437;-81
2022/05/15 12:21:38;;;;;;;1.67;1.20;;;27.30;56.60;;;;;;5074106;28;20464;-82
2022/05/15 12:27:16;;;;;;;1.60;1.37;;;27.30;56.60;;;;;;5074188;28;20797;-82
2022/05/15 12:29:52;;;;;;;1.40;1.23;;;27.30;56.60;;;;;;5039872;28;20847;-88
2022/05/15 12:32:27;;;;;;;1.30;1.20;;;27.30;56.60;;;;;;5073777;28;20448;-82
2022/05/15 12:34:55;;;;;;;1.93;1.30;;;27.30;56.60;;;;;;5073929;28;20440;-82
2022/05/15 12:37:40;;;;;;;1.87;1.33;;;27.30;56.50;;;;;;5073728;28;20829;-82
2022/05/15 12:40:11;;;;;;;1.87;1.20;;;27.40;56.60;;;;;;5073490;28;20472;-82
2022/05/15 12:42:40;;;;;;;1.40;1.30;;;27.30;56.50;;;;;;5073489;28;20536;-82
2022/05/15 12:45:11;;;;;;;1.70;1.23;;;27.40;56.60;;;;;;5073474;28;20839;-81
2022/05/15 12:47:40;;;;;;;2.03;1.93;;;27.40;56.50;;;;;;5073382;28;20469;-82
2022/05/15 12:50:15;;;;;;;1.40;1.20;;;27.40;56.50;;;;;;5073517;28;20441;-81
2022/05/15 12:52:52;;;;;;;2.43;0.97;;;27.40;56.50;;;;;;5073616;28;20436;-82
2022/05/15 12:55:23;;;;;;;1.70;1.30;;;27.40;56.40;;;;;;5073540;28;20432;-82
2022/05/15 12:57:53;;;;;;;1.20;1.07;;;27.40;56.50;;;;;;5073484;28;20516;-82
2022/05/15 13:00:28;;;;;;;1.33;1.23;;;27.40;56.50;;;;;;5073530;28;20441;-81
2022/05/15 13:03:00;;;;;;;1.40;1.30;;;27.40;56.50;;;;;;5073111;28;20444;-81
2022/05/15 13:05:30;;;;;;;1.40;1.00;;;27.40;56.50;;;;;;5073336;28;20480;-82
2022/05/15 13:07:59;;;;;;;1.50;1.40;;;27.40;56.50;;;;;;5072955;28;20492;-82
2022/05/15 13:10:28;;;;;;;1.40;1.30;;;27.40;56.40;;;;;;5073078;28;20943;-82
2022/05/15 13:12:57;;;;;;;1.73;1.40;;;27.40;56.40;;;;;;5073057;28;20437;-82
2022/05/15 13:15:26;;;;;;;1.30;1.20;;;27.40;56.40;;;;;;5073020;28;20480;-82
2022/05/15 13:17:55;;;;;;;1.53;1.20;;;27.40;56.40;;;;;;5072974;28;20869;-82
2022/05/15 13:20:24;;;;;;;1.20;1.10;;;27.40;56.40;;;;;;5073111;28;20453;-82
2022/05/15 13:22:52;;;;;;;1.30;1.10;;;27.40;56.40;;;;;;5073102;28;20799;-82
2022/05/15 13:25:26;;;;;;;1.20;0.93;;;27.40;56.40;;;;;;5055181;28;20497;-81
2022/05/15 13:27:54;;;;;;;1.47;1.33;;;27.40;56.40;;;;;;5072988;28;20954;-81
2022/05/15 13:30:23;;;;;;;1.27;1.17;;;27.40;56.30;;;;;;5073163;28;20445;-82